createdAt,value
2022-11-27T00:00:23.060Z,4.44
2022-11-27T00:01:30.540Z,4.43
2022-11-27T00:02:36.504Z,4.39
2022-11-27T00:03:43.559Z,4.41
2022-11-27T00:04:45.832Z,4.42
2022-11-27T00:05:59.014Z,4.44
2022-11-27T00:07:01.372Z,4.43
2022-11-27T00:08:03.832Z,4.43
2022-11-27T00:09:09.215Z,4.44
2022-11-27T00:10:12.397Z,4.47
2022-11-27T00:11:18.262Z,4.46
2022-11-27T00:12:20.529Z,4.44
2022-11-27T00:13:22.865Z,4.47
2022-11-27T00:14:25.166Z,4.51
2022-11-27T00:15:27.827Z,4.47
2022-11-27T00:16:30.437Z,4.45
2022-11-27T00:17:32.721Z,4.44
2022-11-27T00:18:36.096Z,4.45
2022-11-27T00:19:43.092Z,4.45
2022-11-27T00:20:45.364Z,4.45
2022-11-27T00:21:48.298Z,4.45
2022-11-27T00:22:50.549Z,4.43
2022-11-27T00:23:54.491Z,4.43
2022-11-27T00:24:56.656Z,4.43
2022-11-27T00:25:59.193Z,4.42
2022-11-27T00:27:01.469Z,4.42
2022-11-27T00:28:03.901Z,4.41
2022-11-27T00:29:07.280Z,4.41
2022-11-27T00:30:10.299Z,4.42
2022-11-27T00:31:18.524Z,4.44
2022-11-27T00:32:20.913Z,4.46
2022-11-27T00:33:23.214Z,4.46
2022-11-27T00:34:26.746Z,4.47
2022-11-27T00:35:29.037Z,4.44
2022-11-27T00:36:33.421Z,4.44
2022-11-27T00:37:35.791Z,4.45
2022-11-27T00:38:41.468Z,4.47
2022-11-27T00:39:44.397Z,4.46
2022-11-27T00:40:48.021Z,4.46
2022-11-27T00:41:50.440Z,4.46
2022-11-27T00:42:52.689Z,4.45
2022-11-27T00:43:55.928Z,4.47
2022-11-27T00:44:58.135Z,4.48
2022-11-27T00:46:00.714Z,4.50
2022-11-27T00:47:03.181Z,4.49
2022-11-27T00:48:06.504Z,4.51
2022-11-27T00:49:11.496Z,4.50
2022-11-27T00:50:13.840Z,4.54
2022-11-27T00:51:21.526Z,4.60
2022-11-27T00:52:23.750Z,4.53
2022-11-27T00:53:27.229Z,4.46
2022-11-27T00:54:29.575Z,4.43
2022-11-27T00:55:33.220Z,4.43
2022-11-27T00:56:40.475Z,4.50
2022-11-27T00:57:42.695Z,4.50
2022-11-27T00:58:47.875Z,4.50
2022-11-27T00:59:50.200Z,4.44
2022-11-27T01:01:01.992Z,4.46
2022-11-27T01:02:04.326Z,4.40
2022-11-27T01:03:06.917Z,4.38
2022-11-27T01:04:14.098Z,4.32
2022-11-27T01:05:16.449Z,4.39
2022-11-27T01:06:20.498Z,4.36
2022-11-27T01:07:22.841Z,4.37
2022-11-27T01:08:26.093Z,4.35
2022-11-27T01:09:28.489Z,4.36
2022-11-27T01:10:30.900Z,4.38
2022-11-27T01:11:37.872Z,4.41
2022-11-27T01:12:40.284Z,4.45
2022-11-27T01:13:43.010Z,4.38
2022-11-27T01:14:45.350Z,4.41
2022-11-27T01:15:47.614Z,4.42
2022-11-27T01:16:49.933Z,4.43
2022-11-27T01:17:52.540Z,4.50
2022-11-27T01:18:58.020Z,4.47
2022-11-27T01:20:00.359Z,4.51
2022-11-27T01:21:06.136Z,4.44
2022-11-27T01:22:09.320Z,4.44
2022-11-27T01:23:17.422Z,4.43
2022-11-27T01:24:22.672Z,4.46
2022-11-27T01:25:27.474Z,4.43
2022-11-27T01:26:29.959Z,4.46
2022-11-27T01:27:32.252Z,4.44
2022-11-27T01:28:36.643Z,4.42
2022-11-27T01:29:38.956Z,4.39
2022-11-27T01:30:41.292Z,4.42
2022-11-27T01:31:43.604Z,4.41
2022-11-27T01:32:45.917Z,4.37
2022-11-27T01:33:48.388Z,4.46
2022-11-27T01:34:54.370Z,4.43
2022-11-27T01:35:58.363Z,4.39
2022-11-27T01:37:00.820Z,4.34
2022-11-27T01:38:03.430Z,4.35
2022-11-27T01:39:05.862Z,4.34
2022-11-27T01:40:08.768Z,4.33
2022-11-27T01:41:18.217Z,4.36
2022-11-27T01:42:22.345Z,4.32
2022-11-27T01:43:47.792Z,4.35
2022-11-27T01:44:53.296Z,4.37
2022-11-27T01:46:05.551Z,4.36
2022-11-27T01:47:15.308Z,4.38
2022-11-27T01:48:17.720Z,4.39
2022-11-27T01:49:41.064Z,4.43
2022-11-27T01:50:43.490Z,4.37
2022-11-27T01:51:56.469Z,4.38
2022-11-27T01:53:03.367Z,4.39
2022-11-27T01:54:06.028Z,4.40
2022-11-27T01:55:29.085Z,4.40
2022-11-27T01:56:31.368Z,4.40
2022-11-27T01:57:46.961Z,4.38
2022-11-27T01:58:49.998Z,4.36
2022-11-27T01:59:55.042Z,4.43
2022-11-27T02:01:01.034Z,4.42
2022-11-27T02:02:04.240Z,4.39
2022-11-27T02:03:06.872Z,4.42
2022-11-27T02:04:09.209Z,4.41
2022-11-27T02:05:16.282Z,4.40
2022-11-27T02:06:18.529Z,4.40
2022-11-27T02:07:21.302Z,4.43
2022-11-27T02:08:24.281Z,4.35
2022-11-27T02:09:28.344Z,4.38
2022-11-27T02:10:43.489Z,4.35
2022-11-27T02:12:25.411Z,4.39
2022-11-27T02:13:37.578Z,4.39
2022-11-27T02:14:48.624Z,4.38
2022-11-27T02:16:18.242Z,4.35
2022-11-27T02:17:22.712Z,4.32
2022-11-27T02:18:31.883Z,4.35
2022-11-27T02:19:43.307Z,4.34
2022-11-27T02:20:59.908Z,4.33
2022-11-27T02:22:43.971Z,4.32
2022-11-27T02:23:56.388Z,4.37
2022-11-27T02:25:21.788Z,4.38
2022-11-27T02:26:49.556Z,4.39
2022-11-27T02:27:58.324Z,4.42
2022-11-27T02:29:05.736Z,4.42
2022-11-27T02:30:08.557Z,4.43
2022-11-27T02:31:22.282Z,4.45
2022-11-27T02:32:37.098Z,4.42
2022-11-27T02:33:45.512Z,4.39
2022-11-27T02:34:53.962Z,4.42
2022-11-27T02:36:05.185Z,4.37
2022-11-27T02:37:32.493Z,4.32
2022-11-27T02:38:50.373Z,4.34
2022-11-27T02:40:19.192Z,4.39
2022-11-27T02:41:29.254Z,4.37
2022-11-27T02:42:38.772Z,4.32
2022-11-27T02:43:49.005Z,4.26
2022-11-27T02:44:59.219Z,4.28
2022-11-27T02:46:07.261Z,4.28
2022-11-27T02:47:11.464Z,4.31
2022-11-27T02:48:15.517Z,4.30
2022-11-27T02:49:19.504Z,4.30
2022-11-27T02:50:25.430Z,4.29
2022-11-27T02:51:44.920Z,4.35
2022-11-27T02:52:50.326Z,4.35
2022-11-27T02:53:56.650Z,4.35
2022-11-27T02:55:04.496Z,4.36
2022-11-27T02:56:23.157Z,4.34
2022-11-27T02:57:28.694Z,4.37
2022-11-27T02:58:31.427Z,4.34
2022-11-27T02:59:36.689Z,4.35
2022-11-27T03:00:41.730Z,4.35
2022-11-27T03:01:50.088Z,4.32
2022-11-27T03:02:59.699Z,4.36
2022-11-27T03:04:07.578Z,4.32
2022-11-27T03:05:13.326Z,4.32
2022-11-27T03:06:23.687Z,4.30
2022-11-27T03:07:33.936Z,4.31
2022-11-27T03:08:42.126Z,4.31
2022-11-27T03:09:52.110Z,4.34
2022-11-27T03:11:07.031Z,4.39
2022-11-27T03:12:11.326Z,4.39
2022-11-27T03:13:13.589Z,4.36
2022-11-27T03:14:16.959Z,4.35
2022-11-27T03:15:20.193Z,4.41
2022-11-27T03:16:28.429Z,4.42
2022-11-27T03:17:48.718Z,4.45
2022-11-27T03:19:05.851Z,4.43
2022-11-27T03:20:20.728Z,4.42
2022-11-27T03:21:39.174Z,4.43
2022-11-27T03:22:41.664Z,4.43
2022-11-27T03:23:43.865Z,4.42
2022-11-27T03:24:46.516Z,4.41
2022-11-27T03:25:48.982Z,4.40
2022-11-27T03:26:54.103Z,4.40
2022-11-27T03:28:00.230Z,4.43
2022-11-27T03:29:06.439Z,4.40
2022-11-27T03:30:10.584Z,4.44
2022-11-27T03:31:14.908Z,4.43
2022-11-27T03:32:18.638Z,4.44
2022-11-27T03:33:21.335Z,4.45
2022-11-27T03:34:24.008Z,4.46
2022-11-27T03:35:27.489Z,4.45
2022-11-27T03:36:29.787Z,4.44
2022-11-27T03:37:32.800Z,4.43
2022-11-27T03:38:35.629Z,4.43
2022-11-27T03:39:38.327Z,4.38
2022-11-27T03:41:06.228Z,4.45
2022-11-27T03:42:38.869Z,4.47
2022-11-27T03:43:51.755Z,4.46
2022-11-27T03:44:56.689Z,4.41
2022-11-27T03:46:04.705Z,4.35
2022-11-27T03:47:22.326Z,4.49
2022-11-27T03:48:36.865Z,4.39
2022-11-27T03:49:45.687Z,4.34
2022-11-27T03:51:21.975Z,4.40
2022-11-27T03:52:44.512Z,4.41
2022-11-27T03:54:04.200Z,4.42
2022-11-27T03:55:21.537Z,4.40
2022-11-27T03:56:37.035Z,4.43
2022-11-27T03:57:58.588Z,4.46
2022-11-27T03:59:11.115Z,4.43
2022-11-27T04:00:14.006Z,4.41
2022-11-27T04:01:20.208Z,4.38
2022-11-27T04:02:41.795Z,4.43
2022-11-27T04:03:44.321Z,4.41
2022-11-27T04:04:46.645Z,4.37
2022-11-27T04:05:49.078Z,4.39
2022-11-27T04:07:01.302Z,4.42
2022-11-27T04:08:03.946Z,4.41
2022-11-27T04:09:06.507Z,4.41
2022-11-27T04:10:09.978Z,4.45
2022-11-27T04:11:12.617Z,4.44
2022-11-27T04:12:17.098Z,4.43
2022-11-27T04:13:22.051Z,4.44
2022-11-27T04:14:24.427Z,4.39
2022-11-27T04:15:29.389Z,4.38
2022-11-27T04:16:31.992Z,4.37
2022-11-27T04:17:34.776Z,4.41
2022-11-27T04:18:37.696Z,4.38
2022-11-27T04:19:40.023Z,4.37
2022-11-27T04:20:42.486Z,4.46
2022-11-27T04:21:44.902Z,4.45
2022-11-27T04:22:47.276Z,4.42
2022-11-27T04:23:49.729Z,4.45
2022-11-27T04:24:52.550Z,4.43
2022-11-27T04:25:54.988Z,4.44
2022-11-27T04:26:57.642Z,4.37
2022-11-27T04:28:00.035Z,4.37
2022-11-27T04:29:02.440Z,4.39
2022-11-27T04:30:05.380Z,4.37
2022-11-27T04:31:07.763Z,4.35
2022-11-27T04:32:12.215Z,4.36
2022-11-27T04:33:14.574Z,4.39
2022-11-27T04:34:16.866Z,4.36
2022-11-27T04:35:21.741Z,4.31
2022-11-27T04:36:26.045Z,4.36
2022-11-27T04:37:28.365Z,4.36
2022-11-27T04:38:31.477Z,4.42
2022-11-27T04:39:33.989Z,4.42
2022-11-27T04:40:36.238Z,4.36
2022-11-27T04:41:38.700Z,4.36
2022-11-27T04:42:41.456Z,4.40
2022-11-27T04:43:43.718Z,4.41
2022-11-27T04:44:46.090Z,4.42
2022-11-27T04:45:48.587Z,4.36
2022-11-27T04:46:51.203Z,4.39
2022-11-27T04:47:53.509Z,4.39
2022-11-27T04:48:55.964Z,4.42
2022-11-27T04:49:58.237Z,4.39
2022-11-27T04:51:03.569Z,4.37
2022-11-27T04:52:06.232Z,4.37
2022-11-27T04:53:11.451Z,4.44
2022-11-27T04:54:13.843Z,4.42
2022-11-27T04:55:16.129Z,4.42
2022-11-27T04:56:18.904Z,4.43
2022-11-27T04:57:21.502Z,4.43
2022-11-27T04:58:24.008Z,4.40
2022-11-27T04:59:26.208Z,4.38
2022-11-27T05:00:29.711Z,4.40
2022-11-27T05:01:34.576Z,4.42
2022-11-27T05:02:36.822Z,4.44
2022-11-27T05:03:39.146Z,4.44
2022-11-27T05:04:41.720Z,4.44
2022-11-27T05:05:44.151Z,4.44
2022-11-27T05:06:47.267Z,4.43
2022-11-27T05:07:50.839Z,4.43
2022-11-27T05:09:00.182Z,4.39
2022-11-27T05:10:02.493Z,4.32
2022-11-27T05:11:12.183Z,4.33
2022-11-27T05:12:14.532Z,4.39
2022-11-27T05:13:19.273Z,4.39
2022-11-27T05:14:24.373Z,4.43
2022-11-27T05:15:26.814Z,4.35
2022-11-27T05:16:29.203Z,4.36
2022-11-27T05:17:31.538Z,4.39
2022-11-27T05:18:34.203Z,4.40
2022-11-27T05:19:36.470Z,4.39
2022-11-27T05:20:38.843Z,4.42
2022-11-27T05:21:41.766Z,4.41
2022-11-27T05:22:45.217Z,4.43
2022-11-27T05:23:47.481Z,4.40
2022-11-27T05:24:49.927Z,4.37
2022-11-27T05:25:52.231Z,4.38
2022-11-27T05:26:55.820Z,4.38
2022-11-27T05:27:58.109Z,4.36
2022-11-27T05:29:00.492Z,4.38
2022-11-27T05:30:03.372Z,4.41
2022-11-27T05:31:07.345Z,4.41
2022-11-27T05:32:11.559Z,4.42
2022-11-27T05:33:14.530Z,4.46
2022-11-27T05:34:17.017Z,4.48
2022-11-27T05:35:19.291Z,4.41
2022-11-27T05:36:21.694Z,4.41
2022-11-27T05:37:24.141Z,4.35
2022-11-27T05:38:27.135Z,4.36
2022-11-27T05:39:29.302Z,4.37
2022-11-27T05:40:31.752Z,4.41
2022-11-27T05:41:36.042Z,4.41
2022-11-27T05:42:38.248Z,4.43
2022-11-27T05:43:42.044Z,4.41
2022-11-27T05:44:44.336Z,4.45
2022-11-27T05:45:46.815Z,4.46
2022-11-27T05:46:49.079Z,4.48
2022-11-27T05:47:51.507Z,4.44
2022-11-27T05:48:53.898Z,4.45
2022-11-27T05:49:56.512Z,4.41
2022-11-27T05:50:58.907Z,4.44
2022-11-27T05:52:01.201Z,4.38
2022-11-27T05:53:03.596Z,4.37
2022-11-27T05:54:05.835Z,4.42
2022-11-27T05:55:08.593Z,4.44
2022-11-27T05:56:14.844Z,4.48
2022-11-27T05:57:17.215Z,4.47
2022-11-27T05:58:20.697Z,4.47
2022-11-27T05:59:23.079Z,4.47
2022-11-27T06:00:27.240Z,4.49
2022-11-27T06:01:29.596Z,4.46
2022-11-27T06:02:32.721Z,4.47
2022-11-27T06:03:35.460Z,4.44
2022-11-27T06:04:37.978Z,4.46
2022-11-27T06:05:41.030Z,4.45
2022-11-27T06:06:43.886Z,4.44
2022-11-27T06:07:46.599Z,4.45
2022-11-27T06:08:49.344Z,4.46
2022-11-27T06:09:51.964Z,4.47
2022-11-27T06:10:54.713Z,4.44
2022-11-27T06:11:57.406Z,4.38
2022-11-27T06:12:59.753Z,4.39
2022-11-27T06:14:02.043Z,4.42
2022-11-27T06:15:08.437Z,4.46
2022-11-27T06:16:20.879Z,4.46
2022-11-27T06:17:23.259Z,4.44
2022-11-27T06:18:29.284Z,4.44
2022-11-27T06:19:31.873Z,4.46
2022-11-27T06:20:39.573Z,4.48
2022-11-27T06:21:46.765Z,4.47
2022-11-27T06:22:49.017Z,4.45
2022-11-27T06:23:55.610Z,4.47
2022-11-27T06:24:58.015Z,4.46
2022-11-27T06:26:11.669Z,4.47
2022-11-27T06:27:14.123Z,4.46
2022-11-27T06:28:16.829Z,4.44
2022-11-27T06:29:19.304Z,4.43
2022-11-27T06:30:21.974Z,4.45
2022-11-27T06:31:27.555Z,4.46
2022-11-27T06:32:30.987Z,4.48
2022-11-27T06:33:33.266Z,4.50
2022-11-27T06:34:35.940Z,4.50
2022-11-27T06:35:38.198Z,4.49
2022-11-27T06:36:41.043Z,4.48
2022-11-27T06:37:43.668Z,4.50
2022-11-27T06:38:46.965Z,4.51
2022-11-27T06:39:50.366Z,4.45
2022-11-27T06:40:52.803Z,4.46
2022-11-27T06:41:55.150Z,4.46
2022-11-27T06:42:57.945Z,4.43
2022-11-27T06:44:01.473Z,4.43
2022-11-27T06:45:03.994Z,4.44
2022-11-27T06:46:08.068Z,4.43
2022-11-27T06:47:10.443Z,4.48
2022-11-27T06:48:12.939Z,4.56
2022-11-27T06:49:15.260Z,4.54
2022-11-27T06:50:17.824Z,4.55
2022-11-27T06:51:25.699Z,4.54
2022-11-27T06:52:27.927Z,4.53
2022-11-27T06:53:31.371Z,4.49
2022-11-27T06:54:33.717Z,4.53
2022-11-27T06:55:38.423Z,4.55
2022-11-27T06:56:40.833Z,4.52
2022-11-27T06:57:43.210Z,4.54
2022-11-27T06:58:46.171Z,4.58
2022-11-27T06:59:48.657Z,4.53
2022-11-27T07:00:58.025Z,4.54
2022-11-27T07:02:00.774Z,4.51
2022-11-27T07:03:03.365Z,4.47
2022-11-27T07:04:06.174Z,4.52
2022-11-27T07:05:09.031Z,4.54
2022-11-27T07:06:16.498Z,4.53
2022-11-27T07:07:18.873Z,4.55
2022-11-27T07:08:22.560Z,4.53
2022-11-27T07:09:24.884Z,4.48
2022-11-27T07:10:27.280Z,4.53
2022-11-27T07:11:30.387Z,4.55
2022-11-27T07:12:33.017Z,4.53
2022-11-27T07:13:35.603Z,4.52
2022-11-27T07:14:38.152Z,4.58
2022-11-27T07:15:40.705Z,4.57
2022-11-27T07:16:43.101Z,4.59
2022-11-27T07:17:45.697Z,4.64
2022-11-27T07:18:51.112Z,4.62
2022-11-27T07:19:54.906Z,4.65
2022-11-27T07:20:57.757Z,4.64
2022-11-27T07:22:00.174Z,4.61
2022-11-27T07:23:02.486Z,4.62
2022-11-27T07:24:05.361Z,4.60
2022-11-27T07:25:07.989Z,4.59
2022-11-27T07:26:13.058Z,4.59
2022-11-27T07:27:15.331Z,4.58
2022-11-27T07:28:19.397Z,4.65
2022-11-27T07:29:22.197Z,4.69
2022-11-27T07:30:24.852Z,4.69
2022-11-27T07:31:29.275Z,4.71
2022-11-27T07:32:32.100Z,4.68
2022-11-27T07:33:34.271Z,4.68
2022-11-27T07:34:36.675Z,4.70
2022-11-27T07:35:38.902Z,4.71
2022-11-27T07:36:41.237Z,4.75
2022-11-27T07:37:43.590Z,4.79
2022-11-27T07:38:46.909Z,4.80
2022-11-27T07:40:06.008Z,4.83
2022-11-27T07:41:08.957Z,4.84
2022-11-27T07:42:36.960Z,4.80
2022-11-27T07:43:36.485Z,4.74
2022-11-27T07:44:39.062Z,4.78
2022-11-27T07:45:41.521Z,4.78
2022-11-27T07:46:43.903Z,4.80
2022-11-27T07:47:46.936Z,4.85
2022-11-27T07:48:51.452Z,4.90
2022-11-27T07:49:55.325Z,4.98
2022-11-27T07:50:58.435Z,4.94
2022-11-27T07:52:00.793Z,4.95
2022-11-27T07:53:03.075Z,4.90
2022-11-27T07:54:05.306Z,4.94
2022-11-27T07:55:08.041Z,4.96
2022-11-27T07:56:13.050Z,4.95
2022-11-27T07:57:15.424Z,4.94
2022-11-27T07:58:17.863Z,4.94
2022-11-27T07:59:20.171Z,4.94
2022-11-27T08:00:23.121Z,4.97
2022-11-27T08:01:25.668Z,4.96
2022-11-27T08:02:28.136Z,4.99
2022-11-27T08:03:30.477Z,5.00
2022-11-27T08:04:32.790Z,5.00
2022-11-27T08:05:35.836Z,5.09
2022-11-27T08:06:38.546Z,5.14
2022-11-27T08:07:41.616Z,5.10
2022-11-27T08:08:44.530Z,5.12
2022-11-27T08:09:47.335Z,5.14
2022-11-27T08:10:49.613Z,5.12
2022-11-27T08:11:52.999Z,5.12
2022-11-27T08:12:55.234Z,5.08
2022-11-27T08:14:00.249Z,5.08
2022-11-27T08:15:07.737Z,5.06
2022-11-27T08:16:10.376Z,5.06
2022-11-27T08:17:13.883Z,5.05
2022-11-27T08:18:18.264Z,5.08
2022-11-27T08:19:20.760Z,5.11
2022-11-27T08:20:23.564Z,5.16
2022-11-27T08:21:27.263Z,5.09
2022-11-27T08:22:29.479Z,5.09
2022-11-27T08:23:31.898Z,5.10
2022-11-27T08:24:34.231Z,5.11
2022-11-27T08:25:38.319Z,5.17
2022-11-27T08:26:40.683Z,5.17
2022-11-27T08:27:43.507Z,5.18
2022-11-27T08:28:45.845Z,5.19
2022-11-27T08:29:48.357Z,5.16
2022-11-27T08:30:58.696Z,5.17
2022-11-27T08:32:02.052Z,5.16
2022-11-27T08:33:04.420Z,5.18
2022-11-27T08:34:06.892Z,5.22
2022-11-27T08:35:10.528Z,5.18
2022-11-27T08:36:17.896Z,5.25
2022-11-27T08:37:22.248Z,5.30
2022-11-27T08:38:24.770Z,5.21
2022-11-27T08:39:28.709Z,5.19
2022-11-27T08:40:31.839Z,5.15
2022-11-27T08:41:34.369Z,5.23
2022-11-27T08:42:36.710Z,5.18
2022-11-27T08:43:39.011Z,5.16
2022-11-27T08:44:41.381Z,5.19
2022-11-27T08:45:43.821Z,5.17
2022-11-27T08:46:46.227Z,5.16
2022-11-27T08:47:48.490Z,5.19
2022-11-27T08:48:52.019Z,5.25
2022-11-27T08:49:56.928Z,5.18
2022-11-27T08:51:00.364Z,5.22
2022-11-27T08:52:03.695Z,5.20
2022-11-27T08:53:05.975Z,5.25
2022-11-27T08:54:08.643Z,5.26
2022-11-27T08:55:11.073Z,5.25
2022-11-27T08:56:18.840Z,5.18
2022-11-27T08:57:22.008Z,5.18
2022-11-27T08:58:24.563Z,5.12
2022-11-27T08:59:27.181Z,5.13
2022-11-27T09:00:29.823Z,5.20
2022-11-27T09:01:33.577Z,5.17
2022-11-27T09:02:36.022Z,5.17
2022-11-27T09:03:38.785Z,5.16
2022-11-27T09:04:41.259Z,5.13
2022-11-27T09:05:44.948Z,5.16
2022-11-27T09:06:51.042Z,5.16
2022-11-27T09:07:57.570Z,5.09
2022-11-27T09:09:02.191Z,5.17
2022-11-27T09:10:05.829Z,5.19
2022-11-27T09:11:09.322Z,5.26
2022-11-27T09:12:12.465Z,5.26
2022-11-27T09:13:15.052Z,5.21
2022-11-27T09:14:18.021Z,5.27
2022-11-27T09:15:20.343Z,5.30
2022-11-27T09:16:24.042Z,5.30
2022-11-27T09:17:26.728Z,5.34
2022-11-27T09:18:31.616Z,5.34
2022-11-27T09:19:33.927Z,5.34
2022-11-27T09:20:36.245Z,5.31
2022-11-27T09:21:39.453Z,5.37
2022-11-27T09:22:42.356Z,5.33
2022-11-27T09:23:44.969Z,5.36
2022-11-27T09:24:47.431Z,5.44
2022-11-27T09:25:50.749Z,5.37
2022-11-27T09:26:53.111Z,5.41
2022-11-27T09:27:55.396Z,5.42
2022-11-27T09:28:58.926Z,5.41
2022-11-27T09:30:01.451Z,5.43
2022-11-27T09:31:05.534Z,5.48
2022-11-27T09:32:07.796Z,5.46
2022-11-27T09:33:10.214Z,5.44
2022-11-27T09:34:12.904Z,5.47
2022-11-27T09:35:15.319Z,5.39
2022-11-27T09:36:26.252Z,5.41
2022-11-27T09:37:28.693Z,5.39
2022-11-27T09:38:31.273Z,5.40
2022-11-27T09:39:34.270Z,5.42
2022-11-27T09:40:37.020Z,5.45
2022-11-27T09:41:44.715Z,5.50
2022-11-27T09:43:03.157Z,5.48
2022-11-27T09:44:20.279Z,5.43
2022-11-27T09:45:23.299Z,5.47
2022-11-27T09:46:31.414Z,5.49
2022-11-27T09:47:45.704Z,5.48
2022-11-27T09:48:50.826Z,5.51
2022-11-27T09:50:01.762Z,5.47
2022-11-27T09:51:11.796Z,5.48
2022-11-27T09:52:29.906Z,5.49
2022-11-27T09:53:52.748Z,5.47
2022-11-27T09:54:55.275Z,5.49
2022-11-27T09:55:59.998Z,5.56
2022-11-27T09:57:03.413Z,5.58
2022-11-27T09:58:17.752Z,5.60
2022-11-27T09:59:22.809Z,5.58
2022-11-27T10:00:26.474Z,5.60
2022-11-27T10:01:41.930Z,5.59
2022-11-27T10:02:48.347Z,5.63
2022-11-27T10:03:50.673Z,5.65
2022-11-27T10:05:23.859Z,5.63
2022-11-27T10:06:26.379Z,5.69
2022-11-27T10:08:06.583Z,5.68
2022-11-27T10:09:23.692Z,5.66
2022-11-27T10:10:44.953Z,5.66
2022-11-27T10:12:06.143Z,5.69
2022-11-27T10:13:29.553Z,5.71
2022-11-27T10:14:58.394Z,5.78
2022-11-27T10:16:00.957Z,5.70
2022-11-27T10:17:25.494Z,5.76
2022-11-27T10:18:45.869Z,5.81
2022-11-27T10:20:00.553Z,5.87
2022-11-27T10:21:44.809Z,5.95
2022-11-27T10:22:59.071Z,6.02
2022-11-27T10:24:24.928Z,5.99
2022-11-27T10:25:33.893Z,5.99
2022-11-27T10:26:47.938Z,6.04
2022-11-27T10:28:18.867Z,6.00
2022-11-27T10:29:28.979Z,6.07
2022-11-27T10:30:36.589Z,6.14
2022-11-27T10:31:57.495Z,6.10
2022-11-27T10:33:01.236Z,6.16
2022-11-27T10:34:18.670Z,6.20
2022-11-27T10:35:24.703Z,6.11
2022-11-27T10:36:42.244Z,6.14
2022-11-27T10:38:05.074Z,6.15
2022-11-27T10:39:17.233Z,6.13
2022-11-27T10:40:34.586Z,6.16
2022-11-27T10:41:49.915Z,6.22
2022-11-27T10:43:17.402Z,6.14
2022-11-27T10:44:31.986Z,6.16
2022-11-27T10:45:49.845Z,6.04
2022-11-27T10:46:54.446Z,6.10
2022-11-27T10:47:56.897Z,6.13
2022-11-27T10:48:59.363Z,6.19
2022-11-27T10:50:02.472Z,6.15
2022-11-27T10:51:15.954Z,6.10
2022-11-27T10:52:20.182Z,6.16
2022-11-27T10:53:25.238Z,6.21
2022-11-27T10:54:32.710Z,6.28
2022-11-27T10:55:53.678Z,6.25
2022-11-27T10:57:18.469Z,6.29
2022-11-27T10:58:34.583Z,6.28
2022-11-27T10:59:43.349Z,6.25
2022-11-27T11:00:45.728Z,6.20
2022-11-27T11:01:53.651Z,6.20
2022-11-27T11:03:05.220Z,6.21
2022-11-27T11:04:35.890Z,6.17
2022-11-27T11:05:45.426Z,6.11
2022-11-27T11:06:53.630Z,6.26
2022-11-27T11:07:57.695Z,6.27
2022-11-27T11:09:04.484Z,6.23
2022-11-27T11:10:25.961Z,6.14
2022-11-27T11:11:28.615Z,6.21
2022-11-27T11:12:31.246Z,6.23
2022-11-27T11:13:42.244Z,6.19
2022-11-27T11:15:00.830Z,6.12
2022-11-27T11:16:10.999Z,6.13
2022-11-27T11:17:17.944Z,6.12
2022-11-27T11:18:23.693Z,6.12
2022-11-27T11:19:35.869Z,6.14
2022-11-27T11:20:38.210Z,6.12
2022-11-27T11:21:42.720Z,6.05
2022-11-27T11:22:48.753Z,6.08
2022-11-27T11:24:06.292Z,6.07
2022-11-27T11:25:18.248Z,6.04
2022-11-27T11:26:33.177Z,6.01
2022-11-27T11:27:35.592Z,6.03
2022-11-27T11:28:50.395Z,6.02
2022-11-27T11:29:59.451Z,6.02
2022-11-27T11:31:14.059Z,5.94
2022-11-27T11:32:21.858Z,5.97
2022-11-27T11:33:25.108Z,6.03
2022-11-27T11:34:30.311Z,6.08
2022-11-27T11:35:37.407Z,6.05
2022-11-27T11:36:39.884Z,6.01
2022-11-27T11:37:46.471Z,6.05
2022-11-27T11:38:49.753Z,6.05
2022-11-27T11:39:59.886Z,6.08
2022-11-27T11:41:06.169Z,6.09
2022-11-27T11:42:20.378Z,6.10
2022-11-27T11:43:35.784Z,6.08
2022-11-27T11:44:39.676Z,5.98
2022-11-27T11:45:47.530Z,6.05
2022-11-27T11:46:55.671Z,6.06
2022-11-27T11:48:03.760Z,6.14
2022-11-27T11:49:16.178Z,6.19
2022-11-27T11:50:42.514Z,6.22
2022-11-27T11:52:11.704Z,6.20
2022-11-27T11:53:33.252Z,6.20
2022-11-27T11:54:57.487Z,6.22
2022-11-27T11:56:20.897Z,6.14
2022-11-27T11:58:10.478Z,6.16
2022-11-27T11:59:30.706Z,6.15
2022-11-27T12:01:11.392Z,6.11
2022-11-27T12:02:44.159Z,6.12
2022-11-27T12:03:50.297Z,6.10
2022-11-27T12:05:25.494Z,6.08
2022-11-27T12:06:38.809Z,6.10
2022-11-27T12:07:59.341Z,6.09
2022-11-27T12:09:10.876Z,6.09
2022-11-27T12:10:29.483Z,6.11
2022-11-27T12:11:48.907Z,6.01
2022-11-27T12:13:13.099Z,5.99
2022-11-27T12:14:42.073Z,6.01
2022-11-27T12:15:55.626Z,6.01
2022-11-27T12:17:25.827Z,6.00
2022-11-27T12:19:03.774Z,6.00
2022-11-27T12:20:15.555Z,5.95
2022-11-27T12:21:39.959Z,5.98
2022-11-27T12:23:22.230Z,6.00
2022-11-27T12:24:42.048Z,5.88
2022-11-27T12:26:11.205Z,5.91
2022-11-27T12:27:31.853Z,5.88
2022-11-27T12:28:57.622Z,5.98
2022-11-27T12:30:10.902Z,5.86
2022-11-27T12:31:52.466Z,5.81
2022-11-27T12:33:17.556Z,5.83
2022-11-27T12:34:22.902Z,5.84
2022-11-27T12:35:49.975Z,5.90
2022-11-27T12:37:24.625Z,5.86
2022-11-27T12:38:42.570Z,5.82
2022-11-27T12:40:18.634Z,5.80
2022-11-27T12:41:30.092Z,5.85
2022-11-27T12:42:52.610Z,5.90
2022-11-27T12:44:00.516Z,5.83
2022-11-27T12:45:06.300Z,5.84
2022-11-27T12:46:20.159Z,5.89
2022-11-27T12:47:43.410Z,5.82
2022-11-27T12:48:58.389Z,5.85
2022-11-27T12:50:14.394Z,5.84
2022-11-27T12:51:32.716Z,5.86
2022-11-27T12:52:40.926Z,5.80
2022-11-27T12:53:45.651Z,5.84
2022-11-27T12:55:07.059Z,5.84
2022-11-27T12:56:33.238Z,5.79
2022-11-27T12:57:51.295Z,5.80
2022-11-27T12:59:16.334Z,5.74
2022-11-27T13:00:21.557Z,5.70
2022-11-27T13:01:29.966Z,5.68
2022-11-27T13:02:50.208Z,5.72
2022-11-27T13:04:03.163Z,5.77
2022-11-27T13:05:07.815Z,5.80
2022-11-27T13:06:14.152Z,5.69
2022-11-27T13:07:23.237Z,5.71
2022-11-27T13:08:38.275Z,5.66
2022-11-27T13:09:56.973Z,5.67
2022-11-27T13:11:07.479Z,5.62
2022-11-27T13:12:24.543Z,5.70
2022-11-27T13:13:44.685Z,5.60
2022-11-27T13:14:55.312Z,5.59
2022-11-27T13:16:23.647Z,5.59
2022-11-27T13:17:32.787Z,5.62
2022-11-27T13:18:41.172Z,5.68
2022-11-27T13:19:49.517Z,5.69
2022-11-27T13:20:53.228Z,5.58
2022-11-27T13:21:58.020Z,5.62
2022-11-27T13:23:00.254Z,5.56
2022-11-27T13:24:03.585Z,5.60
2022-11-27T13:25:06.309Z,5.59
2022-11-27T13:26:26.595Z,5.56
2022-11-27T13:27:33.710Z,5.61
2022-11-27T13:28:59.511Z,5.61
2022-11-27T13:30:04.518Z,5.59
2022-11-27T13:31:10.171Z,5.51
2022-11-27T13:32:25.767Z,5.52
2022-11-27T13:33:38.877Z,5.50
2022-11-27T13:34:47.100Z,5.49
2022-11-27T13:35:52.760Z,5.52
2022-11-27T13:37:02.313Z,5.60
2022-11-27T13:38:26.122Z,5.53
2022-11-27T13:39:36.081Z,5.50
2022-11-27T13:40:45.114Z,5.47
2022-11-27T13:41:49.183Z,5.46
2022-11-27T13:42:56.033Z,5.51
2022-11-27T13:43:58.714Z,5.48
2022-11-27T13:45:11.546Z,5.48
2022-11-27T13:46:25.376Z,5.46
2022-11-27T13:47:30.436Z,5.48
2022-11-27T13:48:49.279Z,5.46
2022-11-27T13:50:04.114Z,5.49
2022-11-27T13:51:09.589Z,5.50
2022-11-27T13:52:15.958Z,5.48
2022-11-27T13:53:18.322Z,5.45
2022-11-27T13:54:27.505Z,5.47
2022-11-27T13:55:32.810Z,5.43
2022-11-27T13:56:35.187Z,5.42
2022-11-27T13:57:38.890Z,5.40
2022-11-27T13:58:43.306Z,5.40
2022-11-27T14:00:01.534Z,5.38
2022-11-27T14:01:18.395Z,5.37
2022-11-27T14:02:20.857Z,5.36
2022-11-27T14:03:30.395Z,5.33
2022-11-27T14:04:34.299Z,5.34
2022-11-27T14:05:43.878Z,5.33
2022-11-27T14:06:54.512Z,5.34
2022-11-27T14:07:57.660Z,5.39
2022-11-27T14:09:03.466Z,5.33
2022-11-27T14:10:33.739Z,5.33
2022-11-27T14:11:42.858Z,5.30
2022-11-27T14:13:01.953Z,5.27
2022-11-27T14:14:15.935Z,5.24
2022-11-27T14:15:18.171Z,5.25
2022-11-27T14:16:29.086Z,5.26
2022-11-27T14:17:48.655Z,5.19
2022-11-27T14:18:53.605Z,5.21
2022-11-27T14:20:05.347Z,5.21
2022-11-27T14:21:08.890Z,5.20
2022-11-27T14:22:54.008Z,5.23
2022-11-27T14:24:01.069Z,5.22
2022-11-27T14:25:30.733Z,5.16
2022-11-27T14:26:33.427Z,5.16
2022-11-27T14:27:36.869Z,5.16
2022-11-27T14:28:42.436Z,5.12
2022-11-27T14:29:46.651Z,5.10
2022-11-27T14:30:55.719Z,5.09
2022-11-27T14:32:00.625Z,5.10
2022-11-27T14:33:04.650Z,5.09
2022-11-27T14:34:16.158Z,5.08
2022-11-27T14:35:26.043Z,5.07
2022-11-27T14:36:37.458Z,5.08
2022-11-27T14:37:39.676Z,5.11
2022-11-27T14:38:49.175Z,5.09
2022-11-27T14:39:52.125Z,5.06
2022-11-27T14:41:07.473Z,5.07
2022-11-27T14:42:30.213Z,5.03
2022-11-27T14:43:34.480Z,5.03
2022-11-27T14:44:36.672Z,4.99
2022-11-27T14:45:45.591Z,4.96
2022-11-27T14:46:48.452Z,4.97
2022-11-27T14:47:55.045Z,5.00
2022-11-27T14:48:57.686Z,4.94
2022-11-27T14:50:01.225Z,4.94
2022-11-27T14:51:03.844Z,4.93
2022-11-27T14:52:08.848Z,4.94
2022-11-27T14:53:12.173Z,4.92
2022-11-27T14:54:23.292Z,4.96
2022-11-27T14:55:31.569Z,4.91
2022-11-27T14:56:42.203Z,4.92
2022-11-27T14:57:47.551Z,4.93
2022-11-27T14:58:54.487Z,4.92
2022-11-27T15:00:30.210Z,4.92
2022-11-27T15:01:33.870Z,4.91